Time;durP1;ratioP1;P1;durP2;ratioP2;P2;SDS_P1;SDS_P2;PMS_P1;PMS_P2;Temp;Humidity;BMP_temperature;BMP_pressure;BME280_temperature;BME280_humidity;BME280_pressure;Samples;Min_cycle;Max_cycle;Signal;HPM_P1;HPM_P2
2023/03/20 00:00:09;;;;;;;8.65;5.78;;;;;;;;;;7396067;19;20057;-77
2023/03/20 00:02:34;;;;;;;8.18;5.28;;;;;;;;;;7394082;19;20016;-78
2023/03/20 00:05:00;;;;;;;9.50;5.88;;;;;;;;;;7395090;19;19990;-78
2023/03/20 00:07:26;;;;;;;8.68;5.78;;;;;;;;;;7398249;19;20002;-78
2023/03/20 00:09:51;;;;;;;8.50;5.25;;;;;;;;;;7394780;19;19999;-77
2023/03/20 00:12:25;;;;;;;10.23;5.93;;;;;;;;;;7393284;19;19994;-76
2023/03/20 00:14:51;;;;;;;9.85;5.30;;;;;;;;;;7394614;19;20027;-76
2023/03/20 00:17:19;;;;;;;8.82;5.82;;;;;;;;;;7394749;19;20003;-76
2023/03/20 00:19:45;;;;;;;10.98;5.50;;;;;;;;;;7394460;19;20083;-79
2023/03/20 00:22:11;;;;;;;9.35;6.63;;;;;;;;;;7392342;19;20006;-77
2023/03/20 00:24:36;;;;;;;8.88;5.53;;;;;;;;;;7392853;19;19998;-77
2023/03/20 00:27:02;;;;;;;10.20;5.85;;;;;;;;;;7393981;19;20014;-76
2023/03/20 00:29:29;;;;;;;9.82;5.75;;;;;;;;;;7393511;19;20078;-78
2023/03/20 00:31:56;;;;;;;9.55;5.88;;;;;;;;;;7396293;19;20007;-78
2023/03/20 00:34:25;;;;;;;9.90;6.18;;;;;;;;;;7393821;19;20002;-78
2023/03/20 00:36:52;;;;;;;9.27;6.05;;;;;;;;;;7391829;19;20007;-78
2023/03/20 00:39:18;;;;;;;9.80;6.53;;;;;;;;;;7393750;19;20358;-77
2023/03/20 00:41:48;;;;;;;10.07;5.80;;;;;;;;;;7391567;19;20002;-80
2023/03/20 00:44:14;;;;;;;10.73;6.38;;;;;;;;;;7393343;19;20002;-77
2023/03/20 00:46:39;;;;;;;10.38;6.20;;;;;;;;;;7393173;19;20085;-78
2023/03/20 00:49:05;;;;;;;13.48;6.55;;;;;;;;;;7392836;19;20008;-76
2023/03/20 00:51:31;;;;;;;9.50;6.13;;;;;;;;;;7391760;19;20023;-77
2023/03/20 00:53:56;;;;;;;9.05;6.05;;;;;;;;;;7392712;19;20009;-78
2023/03/20 00:56:28;;;;;;;10.00;6.05;;;;;;;;;;7392682;19;20436;-76
2023/03/20 00:58:53;;;;;;;11.13;6.72;;;;;;;;;;7391293;19;20403;-76
2023/03/20 01:01:19;;;;;;;12.38;6.28;;;;;;;;;;7389917;19;20499;-77
2023/03/20 01:03:44;;;;;;;10.32;6.28;;;;;;;;;;7390124;19;20470;-78
2023/03/20 01:06:11;;;;;;;11.35;6.50;;;;;;;;;;7390042;19;20527;-77
2023/03/20 01:08:36;;;;;;;12.60;6.70;;;;;;;;;;7392395;19;20058;-78
2023/03/20 01:11:02;;;;;;;10.65;6.65;;;;;;;;;;7392375;19;19999;-78
2023/03/20 01:13:29;;;;;;;11.40;6.57;;;;;;;;;;7393116;19;20011;-78
2023/03/20 01:15:58;;;;;;;11.25;6.93;;;;;;;;;;7391905;19;20003;-77
2023/03/20 01:18:25;;;;;;;11.52;6.82;;;;;;;;;;7392217;19;20468;-77
2023/03/20 01:20:51;;;;;;;11.43;7.18;;;;;;;;;;7393825;19;20003;-77
2023/03/20 01:23:18;;;;;;;10.93;6.20;;;;;;;;;;7389007;19;20014;-77
2023/03/20 01:25:43;;;;;;;10.45;6.05;;;;;;;;;;7392235;19;20002;-79
2023/03/20 01:28:20;;;;;;;12.35;6.90;;;;;;;;;;7392268;19;20087;-78
2023/03/20 01:30:46;;;;;;;9.48;6.30;;;;;;;;;;7392032;19;19998;-77
2023/03/20 01:33:20;;;;;;;10.18;6.53;;;;;;;;;;7393026;19;19999;-77
2023/03/20 01:35:47;;;;;;;11.07;6.45;;;;;;;;;;7390453;19;20368;-76
2023/03/20 01:38:24;;;;;;;13.10;6.55;;;;;;;;;;7391307;19;20050;-77
2023/03/20 01:40:53;;;;;;;11.00;6.50;;;;;;;;;;7390984;19;20321;-77
2023/03/20 01:43:20;;;;;;;8.85;6.20;;;;;;;;;;7389188;19;20002;-77
2023/03/20 01:46:07;;;;;;;10.10;6.75;;;;;;;;;;7390095;19;20002;-76
2023/03/20 01:48:51;;;;;;;8.88;5.95;;;;;;;;;;7390280;19;19995;-76
2023/03/20 01:51:17;;;;;;;12.00;6.38;;;;;;;;;;7394902;19;20095;-77
2023/03/20 01:53:45;;;;;;;9.73;5.90;;;;;;;;;;7391934;19;20072;-77
2023/03/20 01:56:12;;;;;;;9.60;5.95;;;;;;;;;;7388994;19;20383;-76
2023/03/20 01:58:42;;;;;;;10.85;6.40;;;;;;;;;;7391161;19;20058;-77
2023/03/20 02:01:10;;;;;;;10.95;6.28;;;;;;;;;;7389871;19;20054;-77
2023/03/20 02:03:36;;;;;;;10.35;6.38;;;;;;;;;;7387197;19;20073;-77
2023/03/20 02:06:02;;;;;;;12.25;7.20;;;;;;;;;;7390629;19;19998;-77
2023/03/20 02:08:35;;;;;;;10.93;6.53;;;;;;;;;;7392107;19;20001;-77
2023/03/20 02:11:01;;;;;;;11.52;6.60;;;;;;;;;;7388132;19;20148;-76
2023/03/20 02:13:29;;;;;;;11.85;6.90;;;;;;;;;;7390476;19;20528;-77
2023/03/20 02:16:01;;;;;;;13.20;6.85;;;;;;;;;;7392968;19;20003;-78
2023/03/20 02:18:27;;;;;;;10.18;6.13;;;;;;;;;;7390134;19;20026;-78
2023/03/20 02:21:11;;;;;;;11.32;6.95;;;;;;;;;;7390104;19;20464;-77
2023/03/20 02:23:54;;;;;;;12.65;7.32;;;;;;;;;;7391425;19;19996;-78
2023/03/20 02:26:44;;;;;;;9.32;5.95;;;;;;;;;;7390451;19;19995;-77
2023/03/20 02:29:36;;;;;;;10.32;6.10;;;;;;;;;;7390857;19;19998;-78
2023/03/20 02:32:47;;;;;;;10.27;6.60;;;;;;;;;;7389811;19;20010;-78
2023/03/20 02:36:03;;;;;;;8.35;5.60;;;;;;;;;;7390736;19;20389;-77
2023/03/20 02:38:50;;;;;;;11.07;6.38;;;;;;;;;;7387421;19;20009;-76
2023/03/20 02:41:38;;;;;;;11.25;6.57;;;;;;;;;;7386796;19;20010;-76
2023/03/20 02:44:11;;;;;;;10.82;5.97;;;;;;;;;;7389566;19;19994;-77
2023/03/20 02:47:21;;;;;;;12.20;6.80;;;;;;;;;;7389401;19;20464;-76
2023/03/20 02:50:05;;;;;;;12.60;6.53;;;;;;;;;;7385328;19;20104;-76
2023/03/20 02:52:47;;;;;;;10.48;6.60;;;;;;;;;;7385074;19;19999;-78
2023/03/20 02:55:38;;;;;;;10.18;6.25;;;;;;;;;;7387803;19;20009;-78
2023/03/20 02:58:27;;;;;;;10.45;6.45;;;;;;;;;;7389270;19;20002;-77
2023/03/20 03:01:00;;;;;;;9.75;6.25;;;;;;;;;;7386520;19;20353;-77
2023/03/20 03:03:37;;;;;;;12.23;6.45;;;;;;;;;;7387358;19;20080;-77
2023/03/20 03:06:28;;;;;;;10.82;6.50;;;;;;;;;;7388966;19;20005;-76
2023/03/20 03:09:17;;;;;;;11.73;6.25;;;;;;;;;;7387491;19;20025;-77
2023/03/20 03:11:49;;;;;;;10.63;6.22;;;;;;;;;;7387348;19;20009;-76
2023/03/20 03:14:23;;;;;;;11.60;6.32;;;;;;;;;;7388188;19;19998;-78
2023/03/20 03:16:51;;;;;;;9.85;6.28;;;;;;;;;;7388229;19;19998;-77
2023/03/20 03:19:22;;;;;;;9.60;5.78;;;;;;;;;;7388225;19;20028;-77
2023/03/20 03:21:47;;;;;;;10.60;5.45;;;;;;;;;;7387140;19;20011;-77
2023/03/20 03:24:28;;;;;;;9.93;5.88;;;;;;;;;;7392727;19;20468;-79
2023/03/20 03:26:56;;;;;;;10.70;5.93;;;;;;;;;;7388420;19;20035;-76
2023/03/20 03:29:23;;;;;;;8.68;5.60;;;;;;;;;;7387357;19;19998;-78
2023/03/20 03:31:49;;;;;;;9.68;5.90;;;;;;;;;;7386548;19;20005;-76
2023/03/20 03:34:16;;;;;;;10.48;6.25;;;;;;;;;;7388643;19;20349;-77
2023/03/20 03:37:01;;;;;;;10.10;6.20;;;;;;;;;;7388075;19;20009;-76
2023/03/20 03:39:26;;;;;;;10.40;6.22;;;;;;;;;;7388090;19;19994;-77
2023/03/20 03:42:11;;;;;;;10.03;5.67;;;;;;;;;;7386395;19;20096;-78
2023/03/20 03:45:01;;;;;;;9.80;6.50;;;;;;;;;;7387537;19;20251;-77
2023/03/20 03:48:07;;;;;;;9.95;6.30;;;;;;;;;;7387666;19;20403;-78
2023/03/20 03:50:54;;;;;;;10.02;6.32;;;;;;;;;;7386949;19;20472;-78
2023/03/20 03:53:26;;;;;;;10.18;5.97;;;;;;;;;;7387082;19;20001;-77
2023/03/20 03:55:57;;;;;;;9.48;5.90;;;;;;;;;;7385625;19;20030;-76
2023/03/20 03:58:48;;;;;;;11.85;6.55;;;;;;;;;;7385842;19;20006;-77
2023/03/20 04:01:16;;;;;;;12.13;6.90;;;;;;;;;;7385917;19;20007;-78
2023/03/20 04:03:48;;;;;;;11.90;6.80;;;;;;;;;;7385071;19;20466;-77
2023/03/20 04:06:15;;;;;;;12.85;7.63;;;;;;;;;;7391086;19;19995;-77
2023/03/20 04:08:42;;;;;;;12.10;7.35;;;;;;;;;;7386850;19;20010;-78
2023/03/20 04:11:15;;;;;;;11.07;7.10;;;;;;;;;;7386079;19;20015;-77
2023/03/20 04:13:40;;;;;;;14.68;7.45;;;;;;;;;;7387013;19;20041;-77
2023/03/20 04:16:11;;;;;;;11.88;6.97;;;;;;;;;;7391041;19;19999;-78
2023/03/20 04:18:37;;;;;;;16.80;8.00;;;;;;;;;;7386681;19;20464;-78
2023/03/20 04:21:02;;;;;;;12.98;8.32;;;;;;;;;;7390355;19;20019;-78
2023/03/20 04:23:28;;;;;;;16.23;9.10;;;;;;;;;;7384965;19;19995;-77
2023/03/20 04:25:53;;;;;;;15.98;7.72;;;;;;;;;;7384783;19;19999;-77
2023/03/20 04:28:19;;;;;;;16.13;9.30;;;;;;;;;;7386441;19;20002;-77
2023/03/20 04:30:51;;;;;;;14.68;8.95;;;;;;;;;;7385863;19;19999;-76
2023/03/20 04:33:16;;;;;;;18.42;9.60;;;;;;;;;;7384046;19;19994;-77
2023/03/20 04:35:42;;;;;;;17.20;9.57;;;;;;;;;;7386380;19;19995;-76
2023/03/20 04:38:07;;;;;;;17.65;9.55;;;;;;;;;;7386665;19;19999;-76
2023/03/20 04:40:33;;;;;;;16.98;9.38;;;;;;;;;;7390934;19;19991;-78
2023/03/20 04:42:58;;;;;;;20.33;11.15;;;;;;;;;;7391003;19;20018;-69
2023/03/20 04:45:23;;;;;;;20.48;10.48;;;;;;;;;;7393717;19;20035;-69
2023/03/20 04:47:49;;;;;;;20.58;11.65;;;;;;;;;;7392415;19;19994;-69
2023/03/20 04:50:27;;;;;;;19.92;11.55;;;;;;;;;;7392444;19;20035;-69
2023/03/20 04:52:52;;;;;;;22.08;12.07;;;;;;;;;;7390669;19;20466;-69
2023/03/20 04:55:17;;;;;;;23.15;11.95;;;;;;;;;;7393588;19;20067;-70
2023/03/20 04:57:43;;;;;;;30.63;12.07;;;;;;;;;;7391562;19;20069;-69
2023/03/20 05:00:10;;;;;;;26.85;12.77;;;;;;;;;;7391059;19;20003;-69
2023/03/20 05:02:35;;;;;;;28.13;13.52;;;;;;;;;;7392118;19;20014;-69
2023/03/20 05:05:01;;;;;;;28.23;13.15;;;;;;;;;;7396566;19;20006;-70
2023/03/20 05:07:26;;;;;;;29.63;13.93;;;;;;;;;;7393927;19;19994;-69
2023/03/20 05:09:51;;;;;;;31.05;15.48;;;;;;;;;;7394750;19;20466;-69
2023/03/20 05:12:17;;;;;;;31.70;15.00;;;;;;;;;;7394663;19;19995;-69
2023/03/20 05:14:42;;;;;;;28.88;14.55;;;;;;;;;;7397062;19;20015;-68
2023/03/20 05:17:07;;;;;;;35.75;15.30;;;;;;;;;;7395352;19;20082;-68
2023/03/20 05:19:33;;;;;;;29.85;14.85;;;;;;;;;;7390364;19;20017;-67
2023/03/20 05:21:58;;;;;;;32.78;13.93;;;;;;;;;;7391963;19;20487;-69
2023/03/20 05:24:24;;;;;;;27.92;14.32;;;;;;;;;;7394696;19;20545;-69
2023/03/20 05:26:49;;;;;;;29.75;14.18;;;;;;;;;;7391655;19;20370;-69
2023/03/20 05:29:15;;;;;;;32.63;15.13;;;;;;;;;;7389146;19;20007;-69
2023/03/20 05:31:40;;;;;;;36.35;14.90;;;;;;;;;;7386701;19;20020;-69
2023/03/20 05:34:06;;;;;;;30.45;14.77;;;;;;;;;;7389377;19;20077;-69
2023/03/20 05:36:31;;;;;;;37.00;15.23;;;;;;;;;;7394429;19;19995;-68
2023/03/20 05:38:57;;;;;;;32.95;15.23;;;;;;;;;;7390885;19;20041;-67
2023/03/20 05:41:22;;;;;;;31.60;14.48;;;;;;;;;;7393492;19;20017;-70
2023/03/20 05:43:48;;;;;;;34.10;15.65;;;;;;;;;;7392663;19;20003;-64
2023/03/20 05:46:13;;;;;;;36.45;15.93;;;;;;;;;;7394064;19;20438;-64
2023/03/20 05:48:38;;;;;;;33.75;14.98;;;;;;;;;;7391129;19;20472;-64
2023/03/20 05:51:04;;;;;;;39.03;16.63;;;;;;;;;;7366209;19;20417;-69
2023/03/20 05:53:30;;;;;;;37.75;15.23;;;;;;;;;;7389477;19;19999;-68
2023/03/20 05:55:55;;;;;;;27.77;13.23;;;;;;;;;;7394186;19;20524;-64
2023/03/20 05:58:21;;;;;;;33.00;13.77;;;;;;;;;;7393494;19;19999;-68
2023/03/20 06:00:46;;;;;;;30.73;12.48;;;;;;;;;;7390630;19;19998;-68
2023/03/20 06:03:59;;;;;;;36.08;14.55;;;;;;;;;;7391977;19;20003;-68
2023/03/20 06:06:24;;;;;;;30.45;13.45;;;;;;;;;;7388492;19;20016;-69
2023/03/20 06:08:50;;;;;;;30.73;14.10;;;;;;;;;;7388248;19;20006;-69
2023/03/20 06:11:15;;;;;;;29.58;13.80;;;;;;;;;;7387227;19;19995;-68
2023/03/20 06:13:41;;;;;;;32.38;13.85;;;;;;;;;;7386122;19;20019;-67
2023/03/20 06:16:06;;;;;;;35.55;15.18;;;;;;;;;;7387988;19;20359;-68
2023/03/20 06:18:32;;;;;;;35.90;14.88;;;;;;;;;;7388426;19;19998;-68
2023/03/20 06:20:57;;;;;;;31.88;14.43;;;;;;;;;;7389072;19;20010;-69
2023/03/20 06:23:23;;;;;;;32.42;14.75;;;;;;;;;;7388674;19;20471;-69
2023/03/20 06:25:49;;;;;;;33.40;16.02;;;;;;;;;;7389732;19;20009;-69
2023/03/20 06:28:15;;;;;;;44.90;16.08;;;;;;;;;;7391252;19;20003;-69
2023/03/20 06:30:41;;;;;;;40.67;15.68;;;;;;;;;;7391024;19;19998;-70
2023/03/20 06:33:07;;;;;;;36.65;15.55;;;;;;;;;;7391017;19;20381;-69
2023/03/20 06:35:33;;;;;;;41.95;16.67;;;;;;;;;;7392645;19;20003;-69
2023/03/20 06:37:58;;;;;;;40.67;17.20;;;;;;;;;;7390639;19;20322;-69
2023/03/20 06:40:26;;;;;;;44.22;19.00;;;;;;;;;;7389714;19;20010;-69
2023/03/20 06:42:52;;;;;;;42.00;19.20;;;;;;;;;;7390366;19;20009;-69
2023/03/20 06:45:17;;;;;;;40.85;15.30;;;;;;;;;;7390407;19;20054;-69
2023/03/20 06:47:42;;;;;;;26.40;12.10;;;;;;;;;;7387606;19;19998;-69
2023/03/20 06:50:09;;;;;;;24.33;12.80;;;;;;;;;;7389580;19;20031;-69
2023/03/20 06:52:34;;;;;;;28.10;12.10;;;;;;;;;;7389241;19;20062;-70
2023/03/20 06:55:00;;;;;;;31.92;13.45;;;;;;;;;;7391856;19;20011;-70
2023/03/20 06:57:25;;;;;;;26.23;12.40;;;;;;;;;;7391231;19;20035;-69
2023/03/20 06:59:51;;;;;;;25.13;12.93;;;;;;;;;;7390422;19;20011;-69
2023/03/20 07:02:16;;;;;;;29.27;13.00;;;;;;;;;;7387307;19;20019;-70
2023/03/20 07:04:42;;;;;;;30.15;14.25;;;;;;;;;;7391264;19;20017;-70
2023/03/20 07:07:07;;;;;;;35.47;14.90;;;;;;;;;;7391867;19;20066;-70
2023/03/20 07:09:33;;;;;;;30.60;14.07;;;;;;;;;;7391684;19;19995;-70
2023/03/20 07:11:59;;;;;;;31.80;15.27;;;;;;;;;;7388259;19;19999;-69
2023/03/20 07:14:24;;;;;;;31.25;14.93;;;;;;;;;;7391910;19;20486;-70
2023/03/20 07:16:50;;;;;;;25.23;13.02;;;;;;;;;;7391113;19;19994;-69
2023/03/20 07:19:16;;;;;;;27.05;13.10;;;;;;;;;;7391429;19;20463;-70
2023/03/20 07:21:42;;;;;;;26.20;12.25;;;;;;;;;;7386783;19;20464;-69
2023/03/20 07:24:08;;;;;;;26.88;12.75;;;;;;;;;;7387613;19;20013;-70
2023/03/20 07:26:33;;;;;;;30.70;13.13;;;;;;;;;;7389622;19;20002;-70
2023/03/20 07:28:58;;;;;;;26.50;13.15;;;;;;;;;;7389614;19;19995;-70
2023/03/20 07:31:27;;;;;;;28.95;13.23;;;;;;;;;;7389705;19;20393;-71
2023/03/20 07:33:53;;;;;;;28.23;13.13;;;;;;;;;;7389097;19;20002;-71
2023/03/20 07:36:18;;;;;;;29.27;14.02;;;;;;;;;;7389520;19;19995;-69
2023/03/20 07:38:43;;;;;;;35.05;16.00;;;;;;;;;;7389299;19;19998;-69
2023/03/20 07:41:09;;;;;;;35.03;14.43;;;;;;;;;;7390054;19;20379;-69
2023/03/20 07:43:34;;;;;;;35.47;16.30;;;;;;;;;;7389606;19;19995;-69
2023/03/20 07:46:05;;;;;;;39.28;16.38;;;;;;;;;;7383772;19;20573;-71
2023/03/20 07:48:30;;;;;;;42.83;17.40;;;;;;;;;;7388482;19;20027;-69
2023/03/20 07:50:56;;;;;;;39.97;16.52;;;;;;;;;;7389720;19;20472;-70
2023/03/20 07:53:21;;;;;;;39.03;16.77;;;;;;;;;;7387988;19;20010;-68
2023/03/20 07:55:46;;;;;;;47.22;20.33;;;;;;;;;;7390374;19;19998;-70
2023/03/20 07:58:12;;;;;;;45.78;20.83;;;;;;;;;;7390110;19;19999;-69
2023/03/20 08:00:37;;;;;;;48.88;22.27;;;;;;;;;;7386624;19;19994;-68
2023/03/20 08:03:03;;;;;;;50.55;20.15;;;;;;;;;;7388817;19;20024;-68
2023/03/20 08:05:28;;;;;;;53.70;22.85;;;;;;;;;;7390060;19;20002;-69
2023/03/20 08:07:54;;;;;;;51.90;24.10;;;;;;;;;;7385288;19;20003;-68
2023/03/20 08:10:19;;;;;;;59.10;24.60;;;;;;;;;;7378045;19;19995;-68
2023/03/20 08:12:44;;;;;;;59.17;25.00;;;;;;;;;;7387036;19;20006;-69
2023/03/20 08:15:10;;;;;;;54.80;23.55;;;;;;;;;;7389883;19;20325;-70
2023/03/20 08:17:36;;;;;;;64.38;25.58;;;;;;;;;;7397211;19;20005;-69
2023/03/20 08:20:02;;;;;;;60.78;25.38;;;;;;;;;;7395236;19;20002;-70
2023/03/20 08:22:27;;;;;;;56.33;23.10;;;;;;;;;;7392508;19;20019;-70
2023/03/20 08:24:53;;;;;;;57.05;23.92;;;;;;;;;;7395233;19;20355;-69
2023/03/20 08:27:18;;;;;;;60.38;25.33;;;;;;;;;;7397251;19;19991;-69
2023/03/20 08:29:43;;;;;;;54.83;23.80;;;;;;;;;;7395087;19;20002;-69
2023/03/20 08:32:09;;;;;;;57.13;24.52;;;;;;;;;;7392955;19;19999;-69
2023/03/20 08:34:34;;;;;;;59.42;24.27;;;;;;;;;;7392930;19;20475;-68
2023/03/20 08:37:02;;;;;;;58.47;24.52;;;;;;;;;;7393093;19;20219;-69
2023/03/20 08:39:28;;;;;;;52.75;22.73;;;;;;;;;;7396974;19;20662;-69
2023/03/20 08:41:53;;;;;;;52.15;22.60;;;;;;;;;;7393410;19;20003;-70
2023/03/20 08:44:18;;;;;;;57.40;23.02;;;;;;;;;;7394818;19;20023;-70
2023/03/20 08:46:45;;;;;;;52.70;24.02;;;;;;;;;;7394378;19;19998;-69
2023/03/20 08:49:10;;;;;;;56.17;23.70;;;;;;;;;;7396320;19;19998;-70
2023/03/20 08:51:35;;;;;;;44.70;21.80;;;;;;;;;;7393143;19;19991;-69
2023/03/20 08:54:01;;;;;;;45.17;21.52;;;;;;;;;;7395737;19;20003;-69
2023/03/20 08:56:26;;;;;;;45.58;21.27;;;;;;;;;;7394825;19;20025;-69
2023/03/20 08:58:54;;;;;;;47.95;21.40;;;;;;;;;;7396013;19;19998;-69
2023/03/20 09:01:20;;;;;;;37.60;17.13;;;;;;;;;;7395478;19;20475;-70
2023/03/20 09:03:45;;;;;;;43.72;18.67;;;;;;;;;;7390484;19;19999;-69
2023/03/20 09:06:11;;;;;;;35.97;16.55;;;;;;;;;;7396019;19;20317;-70
2023/03/20 09:08:37;;;;;;;35.38;17.23;;;;;;;;;;7395497;19;20022;-70
2023/03/20 09:11:03;;;;;;;31.13;16.20;;;;;;;;;;7392878;19;19994;-69
2023/03/20 09:13:28;;;;;;;34.35;15.55;;;;;;;;;;7394132;19;20005;-69
2023/03/20 09:15:55;;;;;;;31.50;14.35;;;;;;;;;;7395810;19;20046;-69
2023/03/20 09:18:20;;;;;;;35.15;15.38;;;;;;;;;;7394214;19;20005;-69
2023/03/20 09:20:47;;;;;;;30.45;15.35;;;;;;;;;;7391491;19;19998;-69
2023/03/20 09:23:12;;;;;;;27.55;14.23;;;;;;;;;;7391293;19;20003;-68
2023/03/20 09:25:38;;;;;;;30.35;15.13;;;;;;;;;;7394300;19;19991;-69
2023/03/20 09:28:03;;;;;;;28.35;14.30;;;;;;;;;;7393197;19;20444;-70
2023/03/20 09:30:28;;;;;;;27.80;14.00;;;;;;;;;;7392528;19;19998;-69
2023/03/20 09:32:54;;;;;;;27.63;14.43;;;;;;;;;;7392744;19;20024;-70
2023/03/20 09:35:20;;;;;;;26.30;13.57;;;;;;;;;;7393989;19;20343;-71
2023/03/20 09:37:45;;;;;;;27.80;13.70;;;;;;;;;;7393079;19;19994;-70
2023/03/20 09:40:26;;;;;;;24.27;13.73;;;;;;;;;;7391308;19;20002;-70
2023/03/20 09:42:54;;;;;;;26.38;13.30;;;;;;;;;;7390341;19;20009;-70
2023/03/20 09:45:42;;;;;;;23.50;13.13;;;;;;;;;;7394098;19;20019;-69
2023/03/20 09:48:52;;;;;;;23.50;12.52;;;;;;;;;;7392181;19;20013;-70
2023/03/20 09:51:24;;;;;;;21.88;12.20;;;;;;;;;;7388607;19;20002;-70
2023/03/20 09:53:55;;;;;;;26.15;12.77;;;;;;;;;;7387002;19;20536;-69
2023/03/20 09:56:24;;;;;;;24.48;12.60;;;;;;;;;;7388919;19;20019;-69
2023/03/20 09:58:55;;;;;;;21.55;11.77;;;;;;;;;;7393079;19;20006;-68
2023/03/20 10:01:36;;;;;;;19.15;11.27;;;;;;;;;;7393086;19;20414;-70
2023/03/20 10:04:10;;;;;;;18.55;11.13;;;;;;;;;;7388818;19;19995;-69
2023/03/20 10:06:35;;;;;;;20.70;10.48;;;;;;;;;;7391803;19;20389;-70
2023/03/20 10:09:09;;;;;;;20.80;10.93;;;;;;;;;;7393183;19;20002;-69
2023/03/20 10:11:59;;;;;;;18.45;10.63;;;;;;;;;;7388594;19;20002;-70
2023/03/20 10:14:39;;;;;;;16.42;9.73;;;;;;;;;;7393552;19;20002;-71
2023/03/20 10:17:32;;;;;;;14.97;8.90;;;;;;;;;;7392482;19;20009;-70
2023/03/20 10:20:01;;;;;;;10.35;6.20;;;;;;;;;;7392984;19;20251;-70
2023/03/20 10:22:43;;;;;;;11.65;6.07;;;;;;;;;;7386096;19;19998;-70
2023/03/20 10:25:21;;;;;;;9.10;5.50;;;;;;;;;;7390950;19;20066;-68
2023/03/20 10:28:11;;;;;;;11.20;5.85;;;;;;;;;;7393268;19;19998;-69
2023/03/20 10:30:59;;;;;;;10.10;6.05;;;;;;;;;;7393316;19;20023;-68
2023/03/20 10:33:28;;;;;;;11.23;5.88;;;;;;;;;;7391603;19;20038;-70
2023/03/20 10:36:37;;;;;;;9.70;5.85;;;;;;;;;;7390893;19;20023;-68
2023/03/20 10:39:32;;;;;;;8.98;5.30;;;;;;;;;;7390598;19;20005;-68
2023/03/20 10:42:02;;;;;;;10.00;4.85;;;;;;;;;;7387421;19;20009;-69
2023/03/20 10:44:27;;;;;;;13.07;4.95;;;;;;;;;;7391259;19;20002;-70
2023/03/20 10:46:56;;;;;;;7.67;4.47;;;;;;;;;;7388889;19;20002;-69
2023/03/20 10:50:02;;;;;;;7.40;4.50;;;;;;;;;;7391922;19;20240;-70
2023/03/20 10:52:31;;;;;;;9.27;4.63;;;;;;;;;;7389787;19;20006;-69
2023/03/20 10:55:00;;;;;;;8.18;4.82;;;;;;;;;;7390579;19;20481;-69
2023/03/20 10:57:30;;;;;;;8.30;4.57;;;;;;;;;;7392988;19;20006;-70
2023/03/20 10:59:57;;;;;;;9.32;4.22;;;;;;;;;;7389681;19;20002;-69
2023/03/20 11:02:26;;;;;;;8.57;4.32;;;;;;;;;;7389529;19;20002;-69
2023/03/20 11:04:52;;;;;;;7.13;4.43;;;;;;;;;;7323341;19;20010;-68
2023/03/20 11:07:25;;;;;;;7.95;4.70;;;;;;;;;;7391705;19;19998;-69
2023/03/20 11:10:02;;;;;;;9.13;4.13;;;;;;;;;;7384734;19;20031;-68
2023/03/20 11:12:32;;;;;;;9.35;4.43;;;;;;;;;;7384670;19;20007;-69
2023/03/20 11:15:02;;;;;;;9.65;4.65;;;;;;;;;;7386451;19;20002;-68
2023/03/20 11:17:28;;;;;;;8.30;4.30;;;;;;;;;;7388302;19;20328;-70
2023/03/20 11:20:01;;;;;;;10.15;4.20;;;;;;;;;;7384891;19;20062;-70
2023/03/20 11:22:28;;;;;;;7.53;4.38;;;;;;;;;;7384702;19;20006;-69
2023/03/20 11:24:57;;;;;;;7.05;4.05;;;;;;;;;;7389438;19;20002;-69
2023/03/20 11:27:31;;;;;;;7.57;4.30;;;;;;;;;;7392656;19;20006;-69
2023/03/20 11:30:00;;;;;;;8.25;4.55;;;;;;;;;;7389342;19;20023;-68
2023/03/20 11:32:34;;;;;;;7.10;4.20;;;;;;;;;;7387071;19;20125;-70
2023/03/20 11:35:21;;;;;;;8.15;3.83;;;;;;;;;;7390980;19;20002;-68
2023/03/20 11:37:50;;;;;;;8.05;4.50;;;;;;;;;;7388273;19;19998;-68
2023/03/20 11:40:28;;;;;;;6.97;3.88;;;;;;;;;;7388859;19;20011;-69
2023/03/20 11:43:08;;;;;;;6.68;3.80;;;;;;;;;;7389795;19;20003;-69
2023/03/20 11:45:41;;;;;;;6.75;3.38;;;;;;;;;;7391801;19;20588;-69
2023/03/20 11:48:17;;;;;;;6.38;3.40;;;;;;;;;;7387642;19;20119;-69
2023/03/20 11:50:46;;;;;;;6.88;3.70;;;;;;;;;;7396283;19;19998;-68
2023/03/20 11:53:26;;;;;;;7.50;4.18;;;;;;;;;;7394114;19;20049;-68
2023/03/20 11:56:11;;;;;;;9.13;3.85;;;;;;;;;;7395667;19;20001;-68
2023/03/20 11:58:48;;;;;;;7.82;3.95;;;;;;;;;;7395073;19;20006;-68
2023/03/20 12:01:13;;;;;;;7.07;3.58;;;;;;;;;;7395839;19;20460;-68
2023/03/20 12:03:45;;;;;;;5.30;3.20;;;;;;;;;;7390278;19;20025;-69
2023/03/20 12:06:18;;;;;;;6.38;3.20;;;;;;;;;;7395224;19;20372;-69
2023/03/20 12:08:49;;;;;;;5.47;2.92;;;;;;;;;;7396795;19;20452;-69
2023/03/20 12:11:40;;;;;;;5.80;2.78;;;;;;;;;;7396997;19;20007;-69
2023/03/20 12:14:10;;;;;;;6.80;3.10;;;;;;;;;;7396799;19;20536;-69
2023/03/20 12:16:36;;;;;;;5.38;2.90;;;;;;;;;;7396058;19;20503;-69
2023/03/20 12:19:13;;;;;;;6.47;2.70;;;;;;;;;;7395396;19;20002;-69
2023/03/20 12:21:46;;;;;;;6.35;2.60;;;;;;;;;;7392658;19;20476;-71
2023/03/20 12:24:32;;;;;;;5.75;2.90;;;;;;;;;;7388001;19;20023;-69
2023/03/20 12:27:16;;;;;;;4.40;2.60;;;;;;;;;;7393449;19;20031;-69
2023/03/20 12:29:49;;;;;;;5.38;2.75;;;;;;;;;;7389873;19;20001;-69
2023/03/20 12:32:26;;;;;;;4.35;2.38;;;;;;;;;;7391320;19;20463;-69
2023/03/20 12:34:58;;;;;;;5.85;2.92;;;;;;;;;;7393009;19;20013;-70
2023/03/20 12:37:23;;;;;;;4.47;2.20;;;;;;;;;;7394626;19;20388;-69
2023/03/20 12:39:58;;;;;;;5.10;2.78;;;;;;;;;;7391030;19;20326;-68
2023/03/20 12:43:03;;;;;;;5.18;2.72;;;;;;;;;;7393294;19;20027;-70
2023/03/20 12:45:42;;;;;;;4.60;2.65;;;;;;;;;;7392794;19;20558;-69
2023/03/20 12:48:26;;;;;;;5.72;2.70;;;;;;;;;;7393521;19;20025;-69
2023/03/20 12:51:03;;;;;;;5.88;2.97;;;;;;;;;;7394892;19;20482;-70
2023/03/20 12:53:46;;;;;;;6.82;2.83;;;;;;;;;;7394210;19;20342;-69
2023/03/20 12:56:33;;;;;;;6.22;2.70;;;;;;;;;;7395545;19;20009;-70
2023/03/20 12:59:21;;;;;;;5.00;2.80;;;;;;;;;;7395778;19;20016;-69
2023/03/20 13:01:54;;;;;;;5.90;2.65;;;;;;;;;;7390663;19;20327;-70
2023/03/20 13:04:48;;;;;;;5.38;2.78;;;;;;;;;;7390133;19;20061;-70
2023/03/20 13:07:18;;;;;;;4.65;2.55;;;;;;;;;;7395752;19;20066;-70
2023/03/20 13:10:18;;;;;;;4.60;2.53;;;;;;;;;;7393093;19;20002;-70
2023/03/20 13:13:07;;;;;;;6.10;2.65;;;;;;;;;;7393774;19;20005;-69
2023/03/20 13:16:07;;;;;;;17.75;7.05;;;;;;;;;;7394822;19;20474;-69
2023/03/20 13:18:42;;;;;;;14.90;5.95;;;;;;;;;;7393042;19;20084;-69
2023/03/20 13:21:15;;;;;;;22.83;5.95;;;;;;;;;;7394545;19;20002;-68
2023/03/20 13:23:54;;;;;;;5.57;2.70;;;;;;;;;;7389856;19;19998;-70
2023/03/20 13:26:40;;;;;;;4.97;2.53;;;;;;;;;;7392577;19;19999;-69
2023/03/20 13:29:20;;;;;;;5.00;2.30;;;;;;;;;;7394839;19;20003;-69
2023/03/20 13:32:14;;;;;;;4.25;2.38;;;;;;;;;;7391617;19;19999;-69
2023/03/20 13:34:55;;;;;;;6.20;2.30;;;;;;;;;;7392737;19;20457;-69
2023/03/20 13:37:34;;;;;;;5.85;2.30;;;;;;;;;;7396502;19;20433;-69
2023/03/20 13:40:11;;;;;;;5.40;2.35;;;;;;;;;;7393113;19;20006;-69
2023/03/20 13:42:55;;;;;;;5.30;2.65;;;;;;;;;;7394315;19;20002;-69
2023/03/20 13:45:35;;;;;;;5.22;2.53;;;;;;;;;;7393774;19;20465;-69
2023/03/20 13:48:50;;;;;;;6.43;2.30;;;;;;;;;;7395422;19;20081;-69
2023/03/20 13:51:40;;;;;;;6.22;2.72;;;;;;;;;;7393543;19;19994;-70
2023/03/20 13:54:14;;;;;;;6.57;2.90;;;;;;;;;;7393434;19;20357;-69
2023/03/20 13:56:51;;;;;;;6.43;2.95;;;;;;;;;;7392341;19;20440;-70
2023/03/20 13:59:52;;;;;;;6.20;2.80;;;;;;;;;;7392916;19;20002;-69
2023/03/20 14:02:42;;;;;;;6.60;3.17;;;;;;;;;;7388626;19;19998;-68
2023/03/20 14:05:16;;;;;;;4.78;2.35;;;;;;;;;;7394173;19;20479;-70
2023/03/20 14:07:43;;;;;;;5.05;2.65;;;;;;;;;;7393983;19;20011;-68
2023/03/20 14:10:21;;;;;;;6.45;2.38;;;;;;;;;;7389829;19;20031;-68
2023/03/20 14:12:55;;;;;;;5.85;2.83;;;;;;;;;;7387284;19;20432;-70
2023/03/20 14:15:21;;;;;;;7.05;2.58;;;;;;;;;;7394156;19;20006;-69
2023/03/20 14:17:49;;;;;;;5.55;2.67;;;;;;;;;;7390435;19;19997;-70
2023/03/20 14:20:28;;;;;;;6.30;2.30;;;;;;;;;;7393427;19;19997;-69
2023/03/20 14:22:56;;;;;;;4.70;2.35;;;;;;;;;;7391386;19;19999;-70
2023/03/20 14:25:23;;;;;;;7.07;2.50;;;;;;;;;;7393858;19;20005;-70
2023/03/20 14:28:05;;;;;;;8.38;2.95;;;;;;;;;;7390366;19;20013;-70
2023/03/20 14:30:30;;;;;;;5.50;2.83;;;;;;;;;;7390985;19;20002;-69
2023/03/20 14:33:12;;;;;;;5.55;2.70;;;;;;;;;;7390269;19;20023;-70
2023/03/20 14:35:49;;;;;;;6.45;3.15;;;;;;;;;;7392957;19;20471;-70
2023/03/20 14:38:30;;;;;;;7.28;3.53;;;;;;;;;;7391060;19;19994;-70
2023/03/20 14:41:11;;;;;;;9.70;3.22;;;;;;;;;;7388920;19;19994;-70
2023/03/20 14:44:00;;;;;;;6.97;3.08;;;;;;;;;;7389568;19;19994;-68
2023/03/20 14:46:30;;;;;;;5.55;2.35;;;;;;;;;;7389291;19;20010;-69
2023/03/20 14:49:00;;;;;;;5.17;2.73;;;;;;;;;;7392058;19;19994;-70
2023/03/20 14:51:40;;;;;;;5.88;3.03;;;;;;;;;;7392651;19;20467;-70
2023/03/20 14:54:21;;;;;;;5.47;2.70;;;;;;;;;;7391565;19;20013;-70
2023/03/20 14:56:47;;;;;;;5.65;2.70;;;;;;;;;;7392559;19;20010;-70